Time;durP1;ratioP1;P1;durP2;ratioP2;P2;SDS_P1;SDS_P2;PMS_P1;PMS_P2;Temp;Humidity;BMP_temperature;BMP_pressure;BME280_temperature;BME280_humidity;BME280_pressure;Samples;Min_cycle;Max_cycle;Signal;HPM_P1;HPM_P2
2022/06/28 00:01:37;;;;;;;3.70;1.87;;;17.50;99.10;;;;;;4831239;29;20476;-75
2022/06/28 00:04:04;;;;;;;2.17;1.63;;;17.50;99.80;;;;;;4835178;29;20488;-75
2022/06/28 00:06:31;;;;;;;3.20;2.30;;;17.40;99.70;;;;;;4840370;29;20522;-74
2022/06/28 00:08:57;;;;;;;2.23;2.13;;;17.40;99.90;;;;;;4845344;29;20474;-75
2022/06/28 00:11:26;;;;;;;2.27;2.10;;;17.30;99.90;;;;;;4842719;29;20472;-74
2022/06/28 00:13:53;;;;;;;4.37;2.30;;;17.30;99.90;;;;;;4844024;29;20535;-74
2022/06/28 00:16:19;;;;;;;4.47;1.90;;;17.20;99.90;;;;;;4844094;29;20470;-75
2022/06/28 00:18:46;;;;;;;3.00;2.10;;;17.20;99.90;;;;;;4845995;29;20448;-75
2022/06/28 00:21:13;;;;;;;2.23;2.10;;;17.20;99.90;;;;;;4846391;29;20484;-76
2022/06/28 00:23:42;;;;;;;2.77;2.57;;;17.20;99.90;;;;;;4846686;29;20468;-75
2022/06/28 00:26:10;;;;;;;2.00;1.90;;;17.10;99.90;;;;;;4846222;29;20494;-76
2022/06/28 00:28:39;;;;;;;2.77;2.57;;;17.10;99.90;;;;;;4846743;29;20467;-75
2022/06/28 00:31:05;;;;;;;3.97;2.30;;;17.00;99.90;;;;;;4845997;29;20487;-75
2022/06/28 00:33:33;;;;;;;2.23;2.13;;;17.00;99.90;;;;;;4839144;29;20570;-76
2022/06/28 00:36:00;;;;;;;3.00;2.10;;;17.00;99.90;;;;;;4835262;29;20462;-75
2022/06/28 00:38:26;;;;;;;2.37;2.20;;;17.00;99.90;;;;;;4832275;29;20474;-76
2022/06/28 00:40:55;;;;;;;2.40;2.30;;;17.00;99.90;;;;;;4834477;29;20448;-76
2022/06/28 00:43:22;;;;;;;3.40;2.37;;;17.00;99.90;;;;;;4836918;29;20503;-76
2022/06/28 00:45:52;;;;;;;2.57;2.37;;;17.00;99.90;;;;;;4839011;29;20549;-75
2022/06/28 00:48:19;;;;;;;2.63;2.43;;;17.00;99.90;;;;;;4834910;29;20734;-76
2022/06/28 00:50:46;;;;;;;3.20;2.30;;;17.00;99.90;;;;;;4832683;29;20464;-74
2022/06/28 00:53:15;;;;;;;3.73;2.57;;;17.00;99.90;;;;;;4831538;29;20522;-76
2022/06/28 00:55:43;;;;;;;2.67;2.40;;;16.90;99.90;;;;;;4830980;29;20489;-76
2022/06/28 00:58:11;;;;;;;3.00;2.30;;;16.90;99.90;;;;;;4829177;29;20547;-76
2022/06/28 01:00:41;;;;;;;2.27;2.17;;;16.80;99.90;;;;;;4828847;29;20551;-75
2022/06/28 01:03:10;;;;;;;2.67;2.47;;;16.80;99.90;;;;;;4828253;29;20570;-76
2022/06/28 01:05:37;;;;;;;4.83;2.27;;;16.70;99.90;;;;;;4826795;29;20567;-76
2022/06/28 01:08:06;;;;;;;6.73;2.40;;;16.70;99.90;;;;;;4828496;29;20472;-76
2022/06/28 01:10:33;;;;;;;2.53;2.33;;;16.70;99.90;;;;;;4827822;29;20463;-76
2022/06/28 01:13:00;;;;;;;2.60;2.17;;;16.70;99.90;;;;;;4826523;29;20919;-75
2022/06/28 01:15:27;;;;;;;2.57;2.37;;;16.60;99.90;;;;;;4828078;29;20434;-76
2022/06/28 01:17:55;;;;;;;3.60;2.30;;;16.60;99.90;;;;;;4827802;29;20767;-77
2022/06/28 01:20:24;;;;;;;2.90;2.70;;;16.50;99.90;;;;;;4828047;29;20431;-76
2022/06/28 01:22:54;;;;;;;2.50;2.30;;;16.50;99.90;;;;;;4827052;29;20551;-75
2022/06/28 01:25:22;;;;;;;2.43;2.27;;;16.50;99.90;;;;;;4827443;29;20527;-76
2022/06/28 01:27:50;;;;;;;2.50;2.13;;;16.40;99.90;;;;;;4826947;29;21049;-75
2022/06/28 01:30:17;;;;;;;4.73;2.90;;;16.40;99.90;;;;;;4827256;29;20481;-75
2022/06/28 01:32:44;;;;;;;11.30;3.10;;;16.40;99.90;;;;;;4826921;29;20541;-75
2022/06/28 01:35:11;;;;;;;2.30;2.10;;;16.40;99.90;;;;;;4826592;29;20466;-74
2022/06/28 01:37:38;;;;;;;2.90;2.70;;;16.30;99.90;;;;;;4827326;29;20460;-74
2022/06/28 01:40:08;;;;;;;2.10;2.00;;;16.30;99.90;;;;;;4826831;29;20464;-76
2022/06/28 01:42:36;;;;;;;2.10;2.00;;;16.40;99.90;;;;;;4825987;29;20479;-76
2022/06/28 01:45:03;;;;;;;2.40;2.30;;;16.30;99.90;;;;;;4827678;29;20543;-76
2022/06/28 01:47:35;;;;;;;3.03;2.40;;;16.20;99.90;;;;;;4828156;29;20467;-76
2022/06/28 01:50:03;;;;;;;3.30;2.83;;;16.10;99.90;;;;;;4829189;29;20470;-76
2022/06/28 01:52:30;;;;;;;2.53;2.33;;;16.10;99.90;;;;;;4840516;29;20496;-75
2022/06/28 01:54:57;;;;;;;2.30;2.10;;;16.10;99.90;;;;;;4849116;29;20483;-76
2022/06/28 01:57:25;;;;;;;3.43;2.50;;;16.00;99.90;;;;;;4848948;29;20441;-77
2022/06/28 01:59:52;;;;;;;2.50;2.30;;;16.00;99.90;;;;;;4846870;29;20524;-76
2022/06/28 02:02:19;;;;;;;4.23;2.80;;;15.90;99.90;;;;;;4826368;29;20487;-75
2022/06/28 02:04:45;;;;;;;3.07;2.20;;;15.90;99.90;;;;;;4826649;29;20503;-76
2022/06/28 02:07:12;;;;;;;3.20;2.70;;;15.90;99.90;;;;;;4826900;29;20464;-75
2022/06/28 02:09:39;;;;;;;2.70;2.50;;;16.00;99.90;;;;;;4826739;29;21025;-75
2022/06/28 02:12:06;;;;;;;3.00;2.70;;;15.90;99.90;;;;;;4826345;29;20507;-75
2022/06/28 02:14:35;;;;;;;3.30;2.33;;;16.00;99.90;;;;;;4826687;29;20542;-75
2022/06/28 02:17:01;;;;;;;3.50;2.83;;;15.90;99.90;;;;;;4827887;29;20519;-77
2022/06/28 02:19:28;;;;;;;2.90;2.40;;;15.90;99.90;;;;;;4826457;29;20467;-75
2022/06/28 02:21:55;;;;;;;2.70;2.50;;;15.90;99.90;;;;;;4825779;29;20480;-74
2022/06/28 02:24:22;;;;;;;2.90;2.70;;;15.80;99.90;;;;;;4826411;29;20522;-76
2022/06/28 02:26:49;;;;;;;3.13;2.93;;;15.80;99.90;;;;;;4826509;29;20480;-74
2022/06/28 02:29:16;;;;;;;3.70;3.40;;;15.70;99.90;;;;;;4828500;29;20474;-75
2022/06/28 02:31:44;;;;;;;2.90;2.70;;;15.70;99.90;;;;;;4827438;29;20448;-75
2022/06/28 02:40:21;;;;;;;3.50;2.90;;;15.70;99.90;;;;;;4825653;29;20972;-75
2022/06/28 02:42:26;;;;;;;3.30;2.87;;;15.50;99.90;;;;;;4827999;29;20237;-74
2022/06/28 02:44:53;;;;;;;5.38;3.05;;;15.50;99.90;;;;;;4827826;29;20944;-74
2022/06/28 02:47:21;;;;;;;3.13;2.92;;;15.40;99.90;;;;;;4827065;29;20214;-75
2022/06/28 02:49:48;;;;;;;3.72;3.42;;;15.30;99.90;;;;;;4825937;29;20225;-73
2022/06/28 02:52:15;;;;;;;6.00;3.65;;;15.40;99.90;;;;;;4825256;29;20243;-76
2022/06/28 02:54:42;;;;;;;3.33;3.03;;;15.30;99.90;;;;;;4825569;29;20211;-75
2022/06/28 02:57:09;;;;;;;4.90;3.20;;;15.30;99.90;;;;;;4825209;29;20471;-75
2022/06/28 02:59:36;;;;;;;2.87;2.67;;;15.20;99.90;;;;;;4826107;29;20877;-74
2022/06/28 03:02:03;;;;;;;3.40;3.17;;;15.30;99.90;;;;;;4825428;29;20496;-74
2022/06/28 03:04:31;;;;;;;3.47;3.17;;;15.20;99.90;;;;;;4826047;29;20271;-75
2022/06/28 03:06:58;;;;;;;2.70;2.50;;;15.20;99.90;;;;;;4825436;29;20485;-75
2022/06/28 03:09:25;;;;;;;8.00;3.70;;;15.10;99.90;;;;;;4826000;29;20835;-75
2022/06/28 03:11:52;;;;;;;3.63;3.33;;;15.20;99.90;;;;;;4825281;29;20214;-75
2022/06/28 03:14:18;;;;;;;3.60;3.30;;;15.20;99.90;;;;;;4825577;29;20463;-75
2022/06/28 03:16:45;;;;;;;5.07;3.53;;;15.10;99.90;;;;;;4825862;29;20464;-75
2022/06/28 03:19:12;;;;;;;4.00;3.47;;;15.10;99.90;;;;;;4825450;29;20222;-75
2022/06/28 03:21:41;;;;;;;5.50;3.60;;;15.10;99.90;;;;;;4825235;29;20218;-76
2022/06/28 03:24:08;;;;;;;4.25;3.33;;;15.10;99.90;;;;;;4827203;29;20301;-76
2022/06/28 03:26:35;;;;;;;3.70;3.40;;;15.10;99.90;;;;;;4838411;29;20238;-76
2022/06/28 03:29:01;;;;;;;3.90;3.60;;;15.00;99.90;;;;;;4829976;29;20211;-75
2022/06/28 03:31:28;;;;;;;3.72;3.28;;;15.00;99.90;;;;;;4825343;29;20263;-75
2022/06/28 03:33:55;;;;;;;3.72;3.47;;;15.00;99.90;;;;;;4825856;29;20246;-76
2022/06/28 03:36:22;;;;;;;3.58;3.28;;;14.90;99.90;;;;;;4825761;29;20215;-75
2022/06/28 03:38:50;;;;;;;4.80;3.53;;;14.90;99.90;;;;;;4829961;29;20317;-77
2022/06/28 03:41:22;;;;;;;3.58;3.00;;;14.90;99.90;;;;;;4827004;29;20649;-76
2022/06/28 03:43:49;;;;;;;4.05;3.50;;;14.90;99.90;;;;;;4823806;29;20235;-77
2022/06/28 03:46:16;;;;;;;9.32;3.35;;;14.90;99.90;;;;;;4824463;29;20235;-77
2022/06/28 03:48:43;;;;;;;3.20;2.90;;;15.00;99.90;;;;;;4824577;29;20214;-76
2022/06/28 03:51:10;;;;;;;3.33;3.03;;;15.00;99.90;;;;;;4824596;29;20321;-77
2022/06/28 03:53:37;;;;;;;3.10;2.80;;;15.00;99.90;;;;;;4825118;29;20249;-77
2022/06/28 03:56:05;;;;;;;3.90;3.50;;;15.00;99.90;;;;;;4825753;29;20211;-77
2022/06/28 03:58:34;;;;;;;3.88;3.58;;;15.00;99.90;;;;;;4825705;29;20297;-77
2022/06/28 04:01:01;;;;;;;3.38;3.13;;;15.00;99.90;;;;;;4826157;29;20219;-78
2022/06/28 04:03:27;;;;;;;3.97;3.30;;;15.00;99.90;;;;;;4824982;29;20234;-76
2022/06/28 04:05:54;;;;;;;3.10;2.80;;;15.10;99.90;;;;;;4824665;29;20359;-76
2022/06/28 04:08:21;;;;;;;3.35;3.15;;;15.10;99.90;;;;;;4823992;29;20210;-77
2022/06/28 04:10:49;;;;;;;3.72;3.40;;;15.20;99.90;;;;;;4824884;29;20210;-77
2022/06/28 04:13:17;;;;;;;3.78;3.47;;;15.10;99.90;;;;;;4827432;29;20238;-76
2022/06/28 04:15:44;;;;;;;6.13;3.08;;;15.10;99.90;;;;;;4830177;29;20211;-77
2022/06/28 04:18:11;;;;;;;4.10;3.15;;;15.20;99.90;;;;;;4825282;29;20228;-76
2022/06/28 04:20:41;;;;;;;5.67;3.30;;;15.20;99.90;;;;;;4825256;29;20219;-78
2022/06/28 04:23:08;;;;;;;3.60;3.30;;;15.20;99.90;;;;;;4824535;29;20801;-76
2022/06/28 04:25:34;;;;;;;4.60;3.40;;;15.30;99.90;;;;;;4824312;29;20499;-76
2022/06/28 04:28:01;;;;;;;2.77;2.60;;;15.30;99.90;;;;;;4824617;29;20331;-76
2022/06/28 04:30:31;;;;;;;3.87;3.00;;;15.40;99.90;;;;;;4824263;29;20499;-79
2022/06/28 04:32:57;;;;;;;5.57;3.67;;;15.50;99.90;;;;;;4806225;29;20492;-77
2022/06/28 04:35:24;;;;;;;4.45;3.08;;;15.60;99.90;;;;;;4809689;29;20524;-77
2022/06/28 04:37:51;;;;;;;5.93;3.10;;;15.60;99.90;;;;;;4808102;29;20402;-78
2022/06/28 04:40:18;;;;;;;4.80;3.20;;;15.60;99.90;;;;;;4810575;29;20219;-77
2022/06/28 04:42:45;;;;;;;4.03;3.27;;;15.60;99.90;;;;;;4817199;29;20583;-76
2022/06/28 04:45:13;;;;;;;3.47;3.23;;;15.70;99.90;;;;;;4818743;29;20520;-78
2022/06/28 04:47:42;;;;;;;4.70;3.17;;;15.80;99.90;;;;;;4819050;29;20559;-78
2022/06/28 04:50:10;;;;;;;6.53;3.40;;;15.90;99.90;;;;;;4815122;29;20465;-76
2022/06/28 04:52:37;;;;;;;3.80;3.00;;;16.00;99.90;;;;;;4813293;29;20921;-77
2022/06/28 04:55:04;;;;;;;6.10;3.00;;;16.10;99.90;;;;;;4813470;29;20465;-77
2022/06/28 04:57:31;;;;;;;2.97;2.77;;;16.50;99.90;;;;;;4818710;29;20524;-78
2022/06/28 04:59:58;;;;;;;4.53;2.30;;;16.90;99.90;;;;;;4816181;29;20514;-78
2022/06/28 05:02:25;;;;;;;2.20;2.00;;;17.70;99.90;;;;;;4815483;29;20489;-78
2022/06/28 05:04:53;;;;;;;2.23;1.97;;;18.60;93.00;;;;;;4810982;29;20536;-78
2022/06/28 05:07:20;;;;;;;3.70;2.10;;;18.80;83.90;;;;;;4809795;29;20523;-78
2022/06/28 05:09:47;;;;;;;5.73;2.10;;;19.50;79.60;;;;;;4809547;29;20529;-77
2022/06/28 05:12:14;;;;;;;4.90;2.13;;;19.60;74.20;;;;;;4808804;29;20490;-76
2022/06/28 05:14:41;;;;;;;3.60;2.20;;;20.40;72.20;;;;;;4811486;29;20534;-76
2022/06/28 05:17:08;;;;;;;2.63;2.43;;;21.00;63.20;;;;;;4811555;29;20438;-77
2022/06/28 05:19:35;;;;;;;4.23;2.57;;;20.70;64.30;;;;;;4813478;29;20446;-76
2022/06/28 05:22:04;;;;;;;8.77;2.77;;;20.30;66.60;;;;;;4810297;29;20459;-77
2022/06/28 05:24:30;;;;;;;4.27;2.77;;;21.10;61.90;;;;;;4816666;29;20476;-78
2022/06/28 05:26:57;;;;;;;3.37;2.37;;;21.80;58.00;;;;;;4817106;29;20499;-77
2022/06/28 05:29:24;;;;;;;2.37;2.00;;;22.30;55.70;;;;;;4812665;29;20525;-76
2022/06/28 05:31:52;;;;;;;2.40;2.20;;;23.00;52.80;;;;;;4808687;29;20483;-77
2022/06/28 05:34:19;;;;;;;2.97;2.40;;;23.80;49.70;;;;;;4808881;29;20445;-77
2022/06/28 05:36:46;;;;;;;4.10;2.70;;;21.80;55.70;;;;;;4811951;29;20885;-77
2022/06/28 05:39:14;;;;;;;3.87;2.57;;;21.10;60.30;;;;;;4810744;29;20468;-76
2022/06/28 05:41:42;;;;;;;3.73;2.53;;;21.30;59.80;;;;;;4808719;29;20436;-77
2022/06/28 05:44:10;;;;;;;2.93;2.73;;;22.00;56.60;;;;;;4809497;29;20815;-76
2022/06/28 05:46:39;;;;;;;3.10;2.80;;;21.00;59.60;;;;;;4809121;29;20496;-75
2022/06/28 05:49:06;;;;;;;3.73;3.10;;;20.80;61.70;;;;;;4809164;29;20547;-77
2022/06/28 05:51:33;;;;;;;6.50;3.10;;;20.90;61.00;;;;;;4808955;29;20532;-77
2022/06/28 05:54:01;;;;;;;5.30;2.20;;;21.30;59.50;;;;;;4809213;29;20487;-77
2022/06/28 05:56:29;;;;;;;3.10;2.90;;;21.50;58.00;;;;;;4809985;29;20982;-77
2022/06/28 05:58:56;;;;;;;6.90;2.97;;;21.00;59.60;;;;;;4814745;29;20514;-76
2022/06/28 06:01:25;;;;;;;3.03;2.73;;;21.50;58.70;;;;;;4814289;29;20514;-77
2022/06/28 06:03:55;;;;;;;3.00;2.80;;;21.10;59.70;;;;;;4811949;29;20512;-78
2022/06/28 06:06:24;;;;;;;6.30;3.20;;;21.00;59.50;;;;;;4813039;29;20514;-77
2022/06/28 06:08:52;;;;;;;5.60;2.87;;;21.10;61.20;;;;;;4815051;29;20583;-78
2022/06/28 06:11:19;;;;;;;3.40;2.60;;;21.50;59.10;;;;;;4821862;29;20479;-78
2022/06/28 06:13:48;;;;;;;4.10;2.90;;;22.00;55.50;;;;;;4822010;29;20615;-77
2022/06/28 06:16:15;;;;;;;3.00;2.00;;;22.40;52.70;;;;;;4815189;29;20921;-77
2022/06/28 06:18:42;;;;;;;4.13;2.80;;;22.30;53.50;;;;;;4808730;29;20475;-78
2022/06/28 06:21:09;;;;;;;2.20;2.07;;;22.30;52.40;;;;;;4809048;29;20498;-78
2022/06/28 06:23:36;;;;;;;2.67;2.17;;;22.60;51.30;;;;;;4809171;29;20472;-78
2022/06/28 06:26:03;;;;;;;2.20;2.00;;;21.80;56.50;;;;;;4807872;29;21045;-77
2022/06/28 06:28:30;;;;;;;4.03;2.50;;;22.70;52.80;;;;;;4808520;29;20469;-77
2022/06/28 06:30:58;;;;;;;5.97;2.30;;;23.20;51.10;;;;;;4807915;29;20952;-77
2022/06/28 06:33:25;;;;;;;2.33;2.13;;;22.60;51.70;;;;;;4809137;29;20564;-77
2022/06/28 06:35:52;;;;;;;3.10;2.10;;;22.50;51.20;;;;;;4809888;29;20538;-76
2022/06/28 06:38:19;;;;;;;2.07;1.97;;;22.50;51.20;;;;;;4810115;29;20493;-77
2022/06/28 06:40:46;;;;;;;3.90;1.90;;;21.60;54.10;;;;;;4820534;29;20525;-77
2022/06/28 06:43:13;;;;;;;2.27;1.97;;;21.20;56.10;;;;;;4825198;29;20471;-76
2022/06/28 06:45:40;;;;;;;4.97;1.83;;;21.70;55.50;;;;;;4829482;29;20429;-77
2022/06/28 06:48:08;;;;;;;5.30;1.53;;;21.70;53.40;;;;;;4827950;29;20475;-78
2022/06/28 06:50:35;;;;;;;2.40;2.17;;;21.80;52.80;;;;;;4829214;29;20443;-78
2022/06/28 06:53:03;;;;;;;1.80;1.70;;;21.10;55.20;;;;;;4825998;29;20464;-77
2022/06/28 06:55:30;;;;;;;2.17;1.97;;;21.70;52.30;;;;;;4818302;29;20465;-77
2022/06/28 06:57:57;;;;;;;3.67;1.73;;;21.40;53.30;;;;;;4814679;29;20489;-76
2022/06/28 07:00:24;;;;;;;1.70;1.60;;;21.80;50.50;;;;;;4813864;29;20448;-77
2022/06/28 07:02:51;;;;;;;2.50;1.70;;;21.40;50.20;;;;;;4809602;29;21018;-76
2022/06/28 07:05:19;;;;;;;1.80;1.60;;;20.80;53.10;;;;;;4810747;29;20468;-77
2022/06/28 07:07:46;;;;;;;2.00;1.80;;;20.40;53.00;;;;;;4809797;29;20539;-76
2022/06/28 07:10:13;;;;;;;2.43;1.77;;;20.10;53.00;;;;;;4808524;29;20559;-77
2022/06/28 07:12:41;;;;;;;1.60;1.50;;;20.00;51.00;;;;;;4807605;29;20488;-76
2022/06/28 07:15:09;;;;;;;2.03;1.47;;;20.10;49.80;;;;;;4809274;29;20529;-76
2022/06/28 07:17:36;;;;;;;1.97;1.73;;;19.80;50.90;;;;;;4814136;29;20538;-77
2022/06/28 07:20:03;;;;;;;2.63;1.50;;;19.90;50.20;;;;;;4816767;29;20554;-77
2022/06/28 07:22:31;;;;;;;1.73;1.63;;;19.90;48.80;;;;;;4810998;29;20930;-76
2022/06/28 07:24:59;;;;;;;2.20;1.73;;;20.00;48.90;;;;;;4809316;29;20480;-77
2022/06/28 07:27:27;;;;;;;3.63;1.53;;;20.00;49.50;;;;;;4807272;29;20504;-77
2022/06/28 07:29:54;;;;;;;3.37;1.40;;;20.00;48.90;;;;;;4807195;29;20904;-77
2022/06/28 07:32:21;;;;;;;1.60;1.43;;;20.00;47.20;;;;;;4807621;29;20524;-77
2022/06/28 07:34:48;;;;;;;2.67;1.60;;;20.00;48.20;;;;;;4808349;29;20578;-77
2022/06/28 07:37:14;;;;;;;2.00;1.50;;;20.30;49.10;;;;;;4808198;29;20483;-76
2022/06/28 07:39:43;;;;;;;4.20;1.50;;;20.60;47.90;;;;;;4807993;29;20465;-76
2022/06/28 07:42:10;;;;;;;2.70;1.30;;;20.60;45.90;;;;;;4807403;29;20484;-78
2022/06/28 07:44:37;;;;;;;1.40;1.30;;;20.60;44.10;;;;;;4806549;29;20539;-76
2022/06/28 07:47:04;;;;;;;1.40;1.30;;;20.30;44.50;;;;;;4806476;29;20496;-76
2022/06/28 07:54:58;;;;;;;2.03;1.43;;;20.10;44.30;;;;;;4806219;29;20444;-77
2022/06/28 07:57:24;;;;;;;2.00;1.40;;;20.20;45.50;;;;;;4806720;29;20460;-77
2022/06/28 07:59:51;;;;;;;1.57;1.47;;;20.50;45.00;;;;;;4807322;29;20464;-77
2022/06/28 08:02:18;;;;;;;1.90;1.10;;;20.60;45.80;;;;;;4807843;29;20845;-77
2022/06/28 08:04:45;;;;;;;3.30;2.03;;;20.90;43.60;;;;;;4809593;29;20492;-78
2022/06/28 08:07:13;;;;;;;4.17;1.50;;;20.90;42.70;;;;;;4811215;29;20512;-76
2022/06/28 08:09:40;;;;;;;1.77;1.10;;;20.80;42.30;;;;;;4812971;29;20901;-77
2022/06/28 08:12:09;;;;;;;5.63;1.37;;;20.70;42.70;;;;;;4811998;29;20550;-78
2022/06/28 08:14:36;;;;;;;2.17;1.40;;;20.90;42.60;;;;;;4812591;29;20466;-77
2022/06/28 08:17:03;;;;;;;3.30;1.20;;;21.10;41.90;;;;;;4807374;29;20553;-77
2022/06/28 08:19:30;;;;;;;1.73;1.63;;;21.10;41.60;;;;;;4813790;29;20464;-77
2022/06/28 08:21:58;;;;;;;1.63;1.27;;;20.90;40.20;;;;;;4817667;29;20512;-77
2022/06/28 08:24:25;;;;;;;1.70;1.27;;;21.20;39.90;;;;;;4809854;29;20544;-77
2022/06/28 08:26:53;;;;;;;1.23;1.07;;;21.30;40.00;;;;;;4809387;29;20488;-75
2022/06/28 08:29:21;;;;;;;2.00;1.10;;;21.40;39.50;;;;;;4810638;29;20473;-77
2022/06/28 08:31:49;;;;;;;2.83;1.30;;;21.50;38.70;;;;;;4811247;29;20460;-75
2022/06/28 08:34:16;;;;;;;1.10;1.00;;;21.40;37.10;;;;;;4812226;29;20464;-77
2022/06/28 08:36:42;;;;;;;1.77;1.20;;;21.30;37.90;;;;;;4812622;29;20476;-76
2022/06/28 08:39:09;;;;;;;1.63;1.13;;;21.30;38.00;;;;;;4810582;29;20443;-76
2022/06/28 08:41:37;;;;;;;2.40;1.40;;;21.50;37.20;;;;;;4810378;29;20492;-77
2022/06/28 08:44:04;;;;;;;1.53;0.90;;;21.60;38.00;;;;;;4812055;29;20464;-76
2022/06/28 08:46:36;;;;;;;1.70;1.17;;;21.70;38.00;;;;;;4809635;29;20852;-77
2022/06/28 08:49:05;;;;;;;2.60;1.20;;;21.40;39.30;;;;;;4810019;29;20476;-77
2022/06/28 08:51:33;;;;;;;3.03;1.03;;;21.60;40.30;;;;;;4809241;29;20469;-77
2022/06/28 08:54:02;;;;;;;2.10;1.10;;;21.80;38.40;;;;;;4809060;29;20479;-77
2022/06/28 08:56:30;;;;;;;1.97;1.17;;;21.90;36.10;;;;;;4809783;29;20457;-76
2022/06/28 08:58:58;;;;;;;1.93;1.13;;;21.80;37.80;;;;;;4808736;29;20500;-78
2022/06/28 09:01:25;;;;;;;3.03;1.17;;;21.80;38.10;;;;;;4808699;29;20472;-76
2022/06/28 09:03:55;;;;;;;1.20;1.03;;;21.90;36.50;;;;;;4808950;29;20516;-76
2022/06/28 09:06:24;;;;;;;1.10;1.00;;;22.10;35.60;;;;;;4808463;29;20491;-77
2022/06/28 09:08:50;;;;;;;1.30;1.07;;;22.10;33.80;;;;;;4810189;29;20486;-78
2022/06/28 09:11:18;;;;;;;1.60;1.20;;;22.20;34.80;;;;;;4810517;29;20466;-77
2022/06/28 09:13:45;;;;;;;1.20;1.10;;;22.20;33.90;;;;;;4810573;29;20462;-76
2022/06/28 09:16:13;;;;;;;1.90;0.77;;;22.40;34.10;;;;;;4811122;29;20493;-76
2022/06/28 09:18:48;;;;;;;3.60;1.33;;;22.40;31.80;;;;;;4810706;29;20904;-78
2022/06/28 09:21:19;;;;;;;1.40;1.30;;;22.30;32.80;;;;;;4810694;29;20460;-76
2022/06/28 09:23:48;;;;;;;2.40;1.10;;;22.10;33.00;;;;;;4809221;29;20521;-78
2022/06/28 09:26:16;;;;;;;1.23;1.13;;;22.10;34.10;;;;;;4808723;29;20444;-77
2022/06/28 09:28:46;;;;;;;1.10;1.00;;;22.30;33.20;;;;;;4808313;29;20589;-77
2022/06/28 09:31:21;;;;;;;2.00;0.80;;;22.60;32.50;;;;;;4807795;29;20427;-77
2022/06/28 09:33:49;;;;;;;7.67;1.20;;;22.60;32.20;;;;;;4808365;29;20485;-77
2022/06/28 09:36:19;;;;;;;2.60;1.07;;;22.90;31.20;;;;;;4808752;29;20443;-77
2022/06/28 09:38:46;;;;;;;1.40;1.00;;;23.00;29.70;;;;;;4809590;29;20452;-76
2022/06/28 09:41:21;;;;;;;1.40;1.07;;;23.10;29.40;;;;;;4811789;29;20462;-77
2022/06/28 09:43:58;;;;;;;1.37;0.97;;;23.20;30.20;;;;;;4819269;29;20492;-77
2022/06/28 09:46:26;;;;;;;0.80;0.80;;;23.30;29.60;;;;;;4821979;29;20419;-77
2022/06/28 09:48:57;;;;;;;2.87;1.00;;;22.90;31.40;;;;;;4818836;29;20508;-77
2022/06/28 09:51:27;;;;;;;2.27;1.10;;;23.00;30.70;;;;;;4816219;29;21054;-77
2022/06/28 09:53:56;;;;;;;1.27;1.20;;;23.20;31.10;;;;;;4809609;29;20487;-76
2022/06/28 09:56:25;;;;;;;1.40;1.30;;;23.50;30.20;;;;;;4809527;29;20463;-77
2022/06/28 09:58:53;;;;;;;3.37;1.40;;;23.50;30.30;;;;;;4809740;29;21018;-76
2022/06/28 10:01:20;;;;;;;2.80;1.20;;;23.40;29.70;;;;;;4815197;29;20528;-77
2022/06/28 10:03:49;;;;;;;2.30;1.13;;;23.20;30.50;;;;;;4816590;29;20827;-77
2022/06/28 10:06:17;;;;;;;3.60;1.30;;;23.40;30.70;;;;;;4819824;29;20461;-77
2022/06/28 10:08:47;;;;;;;2.17;1.20;;;23.40;30.00;;;;;;4817263;29;20550;-76
2022/06/28 10:11:14;;;;;;;1.10;0.93;;;23.50;30.40;;;;;;4818868;29;20800;-77
2022/06/28 10:16:41;;;;;;;1.67;1.27;;;23.60;29.00;;;;;;4816649;29;20478;-76
2022/06/28 10:19:09;;;;;;;3.33;1.17;;;23.80;29.30;;;;;;4811634;29;20490;-76
2022/06/28 10:21:43;;;;;;;1.63;0.93;;;23.20;30.00;;;;;;4810111;29;20486;-76
2022/06/28 10:24:12;;;;;;;2.20;1.20;;;23.30;30.70;;;;;;4816050;29;20508;-76
2022/06/28 10:26:42;;;;;;;1.37;1.17;;;23.50;29.50;;;;;;4822425;29;20470;-76
2022/06/28 10:29:10;;;;;;;6.00;1.70;;;23.80;29.70;;;;;;4827430;29;20516;-76
2022/06/28 10:31:39;;;;;;;1.60;1.30;;;24.20;29.80;;;;;;4825729;29;20487;-77
2022/06/28 10:34:10;;;;;;;1.57;0.90;;;23.70;29.50;;;;;;4810533;29;20583;-76
2022/06/28 10:36:49;;;;;;;1.43;1.27;;;23.60;30.40;;;;;;4810090;29;20542;-75
2022/06/28 10:39:19;;;;;;;3.57;1.50;;;23.50;29.90;;;;;;4808186;29;20435;-76
2022/06/28 10:41:48;;;;;;;2.23;1.30;;;23.90;29.40;;;;;;4806766;29;20563;-77
2022/06/28 10:44:17;;;;;;;3.03;1.10;;;24.00;29.10;;;;;;4807965;29;20505;-76
2022/06/28 10:46:50;;;;;;;3.70;1.23;;;24.00;28.90;;;;;;4810981;29;20471;-77
2022/06/28 10:49:17;;;;;;;2.77;1.40;;;23.70;29.40;;;;;;4809442;29;20479;-76
2022/06/28 10:52:08;;;;;;;0.93;0.90;;;23.80;28.90;;;;;;4811988;29;20559;-77
2022/06/28 10:54:36;;;;;;;1.10;1.00;;;23.70;28.20;;;;;;4814885;29;20507;-76
2022/06/28 10:57:20;;;;;;;1.57;1.03;;;23.90;28.60;;;;;;4816329;29;20533;-75
2022/06/28 10:59:49;;;;;;;1.07;0.90;;;24.10;29.10;;;;;;4812066;29;20965;-77
2022/06/28 11:02:17;;;;;;;3.27;1.07;;;24.20;28.00;;;;;;4810799;29;20487;-77
2022/06/28 11:04:45;;;;;;;2.23;1.10;;;24.10;29.00;;;;;;4809380;29;20879;-77
2022/06/28 11:07:23;;;;;;;2.50;1.07;;;24.30;28.40;;;;;;4808890;29;20467;-76
2022/06/28 11:10:12;;;;;;;1.40;1.23;;;24.50;27.40;;;;;;4807546;29;20464;-76
2022/06/28 11:12:42;;;;;;;1.90;1.00;;;24.30;27.90;;;;;;4807054;29;20494;-77
2022/06/28 11:15:10;;;;;;;2.87;1.10;;;24.10;28.40;;;;;;4806993;29;20597;-76
2022/06/28 11:17:40;;;;;;;1.73;1.03;;;24.40;27.40;;;;;;4807284;29;20803;-78
2022/06/28 11:20:10;;;;;;;2.30;0.93;;;24.20;28.10;;;;;;4807032;29;20465;-77
2022/06/28 11:22:40;;;;;;;1.73;0.80;;;24.20;27.10;;;;;;4807102;29;20484;-76
2022/06/28 11:25:11;;;;;;;2.20;1.20;;;24.30;27.40;;;;;;4808625;29;20467;-76
2022/06/28 11:27:44;;;;;;;3.43;1.10;;;24.40;27.80;;;;;;4808588;29;20509;-77
2022/06/28 11:30:12;;;;;;;0.93;0.90;;;24.60;27.30;;;;;;4809027;29;20490;-77
2022/06/28 11:32:40;;;;;;;1.90;1.00;;;25.10;27.20;;;;;;4808554;29;20510;-76
2022/06/28 11:35:09;;;;;;;0.80;0.80;;;25.00;27.10;;;;;;4808867;29;20482;-78
2022/06/28 11:37:49;;;;;;;3.23;1.17;;;24.80;25.90;;;;;;4808419;29;20489;-76
2022/06/28 11:40:18;;;;;;;1.53;1.30;;;24.80;26.90;;;;;;4808686;29;20880;-76
2022/06/28 11:42:45;;;;;;;9.30;1.23;;;25.30;26.50;;;;;;4807890;29;20898;-76
2022/06/28 11:45:13;;;;;;;1.30;1.10;;;25.50;26.30;;;;;;4809289;29;20540;-75
2022/06/28 11:47:43;;;;;;;1.40;1.20;;;25.30;25.70;;;;;;4808996;29;20849;-77
2022/06/28 11:50:13;;;;;;;7.10;1.20;;;25.10;26.60;;;;;;4808397;29;20451;-76
2022/06/28 11:52:51;;;;;;;3.80;1.53;;;25.10;26.40;;;;;;4808013;29;20590;-77
2022/06/28 11:55:37;;;;;;;1.33;1.07;;;24.90;26.60;;;;;;4807138;29;20490;-76
2022/06/28 11:58:11;;;;;;;2.00;1.13;;;25.20;26.20;;;;;;4808128;29;20461;-77
2022/06/28 12:00:38;;;;;;;2.40;1.10;;;25.30;26.30;;;;;;4806685;29;20563;-76
2022/06/28 12:03:06;;;;;;;2.07;1.87;;;25.40;26.70;;;;;;4806497;29;20531;-77
2022/06/28 12:05:35;;;;;;;2.10;1.20;;;25.60;26.00;;;;;;4806410;29;20991;-76
2022/06/28 12:08:04;;;;;;;3.07;1.20;;;25.20;27.30;;;;;;4809310;29;20499;-77
2022/06/28 12:10:33;;;;;;;5.13;1.30;;;25.20;27.20;;;;;;4814802;29;20896;-76
2022/06/28 12:13:10;;;;;;;1.30;1.20;;;25.30;26.00;;;;;;4823557;29;20458;-77
2022/06/28 12:15:38;;;;;;;1.10;1.00;;;25.40;25.40;;;;;;4818221;29;20473;-77
2022/06/28 12:18:08;;;;;;;3.87;1.30;;;25.30;25.20;;;;;;4814578;29;20466;-77
2022/06/28 12:20:36;;;;;;;1.13;1.00;;;25.10;25.50;;;;;;4810014;29;20983;-77
2022/06/28 12:23:05;;;;;;;2.00;1.10;;;25.40;25.80;;;;;;4809676;29;20472;-76
2022/06/28 12:25:35;;;;;;;1.03;0.80;;;25.50;24.90;;;;;;4809339;29;20507;-75
2022/06/28 12:28:01;;;;;;;1.27;1.00;;;25.60;25.70;;;;;;4809938;29;20874;-76
2022/06/28 12:30:28;;;;;;;4.83;1.40;;;25.80;24.70;;;;;;4808941;29;20530;-75
2022/06/28 12:32:56;;;;;;;2.10;1.20;;;25.60;25.80;;;;;;4809187;29;20539;-76
2022/06/28 12:35:23;;;;;;;4.50;1.23;;;25.50;24.90;;;;;;4814276;29;20465;-76
2022/06/28 12:37:52;;;;;;;1.00;0.87;;;25.50;25.20;;;;;;4812524;29;20454;-75
2022/06/28 12:40:21;;;;;;;1.30;1.20;;;25.60;24.60;;;;;;4809504;29;20490;-75
2022/06/28 12:42:49;;;;;;;1.70;1.30;;;25.80;24.70;;;;;;4809472;29;20575;-76
2022/06/28 12:45:16;;;;;;;1.93;0.93;;;25.90;24.80;;;;;;4808557;29;20996;-75
2022/06/28 12:47:43;;;;;;;3.23;0.90;;;25.60;24.60;;;;;;4808888;29;20891;-77
2022/06/28 12:50:13;;;;;;;1.83;0.93;;;25.70;24.70;;;;;;4809004;29;20815;-77
2022/06/28 12:52:42;;;;;;;4.20;1.07;;;25.70;24.70;;;;;;4809280;29;20930;-76
2022/06/28 12:55:10;;;;;;;1.47;1.10;;;25.80;24.70;;;;;;4808843;29;20559;-76
2022/06/28 12:57:38;;;;;;;0.70;0.70;;;25.70;24.00;;;;;;4808027;29;20468;-76
2022/06/28 13:00:09;;;;;;;2.63;0.87;;;25.60;24.60;;;;;;4809412;29;20466;-77
2022/06/28 13:02:36;;;;;;;1.40;0.90;;;25.80;24.70;;;;;;4809142;29;20519;-76
2022/06/28 13:05:04;;;;;;;0.80;0.80;;;26.00;25.40;;;;;;4811219;29;20503;-76
2022/06/28 13:07:31;;;;;;;2.47;0.83;;;26.10;24.20;;;;;;4812091;29;21037;-77